createdAt,value
2023-05-12T00:02:14.204Z,2.50
2023-05-12T00:04:41.289Z,2.30
2023-05-12T00:07:07.822Z,1.97
2023-05-12T00:09:34.273Z,2.37
2023-05-12T00:12:01.909Z,2.43
2023-05-12T00:14:28.343Z,3.03
2023-05-12T00:16:54.942Z,1.97
2023-05-12T00:19:21.484Z,2.50
2023-05-12T00:21:48.044Z,2.50
2023-05-12T00:24:14.868Z,2.00
2023-05-12T00:26:41.465Z,2.20
2023-05-12T00:29:08.001Z,2.07
2023-05-12T00:31:34.515Z,1.93
2023-05-12T00:34:01.239Z,2.33
2023-05-12T00:36:28.036Z,2.00
2023-05-12T00:38:54.633Z,1.83
2023-05-12T00:41:21.210Z,2.37
2023-05-12T00:43:47.794Z,2.27
2023-05-12T00:46:14.581Z,2.13
2023-05-12T00:48:41.192Z,2.13
2023-05-12T00:51:08.578Z,2.20
2023-05-12T00:53:48.349Z,1.83
2023-05-12T00:56:19.700Z,1.67
2023-05-12T00:58:47.041Z,2.00
2023-05-12T01:01:15.094Z,2.13
2023-05-12T01:03:42.592Z,2.10
2023-05-12T01:06:13.690Z,1.70
2023-05-12T01:08:41.444Z,2.00
2023-05-12T01:11:09.042Z,2.20
2023-05-12T01:13:37.164Z,2.00
2023-05-12T01:16:04.972Z,2.00
2023-05-12T01:18:35.238Z,2.23
2023-05-12T01:21:02.870Z,2.00
2023-05-12T01:23:37.624Z,1.93
2023-05-12T01:26:09.175Z,2.33
2023-05-12T01:28:38.258Z,1.97
2023-05-12T01:31:07.667Z,1.77
2023-05-12T01:33:38.086Z,2.03
2023-05-12T01:36:05.191Z,2.10
2023-05-12T01:38:32.418Z,1.70
2023-05-12T01:40:59.196Z,2.17
2023-05-12T01:43:25.678Z,1.80
2023-05-12T01:45:52.149Z,1.83
2023-05-12T01:48:18.632Z,1.73
2023-05-12T01:50:45.597Z,1.73
2023-05-12T01:53:17.790Z,2.00
2023-05-12T01:55:44.263Z,1.83
2023-05-12T01:58:10.807Z,2.00
2023-05-12T02:00:37.532Z,1.90
2023-05-12T02:03:12.886Z,1.73
2023-05-12T02:05:39.456Z,1.70
2023-05-12T02:08:06.080Z,1.60
2023-05-12T02:10:33.385Z,1.80
2023-05-12T02:12:59.923Z,1.80
2023-05-12T02:15:27.862Z,1.57
2023-05-12T02:17:55.317Z,2.00
2023-05-12T02:20:23.498Z,1.53
2023-05-12T02:22:49.948Z,1.80
2023-05-12T02:25:16.425Z,1.90
2023-05-12T02:27:45.011Z,1.90
2023-05-12T02:30:12.051Z,2.00
2023-05-12T02:32:38.603Z,1.57
2023-05-12T02:35:07.517Z,1.90
2023-05-12T02:37:36.194Z,1.80
2023-05-12T02:40:02.702Z,1.90
2023-05-12T02:42:34.850Z,1.83
2023-05-12T02:45:02.069Z,1.70
2023-05-12T02:47:31.348Z,1.70
2023-05-12T02:49:58.017Z,1.80
2023-05-12T02:52:24.562Z,1.63
2023-05-12T02:54:51.084Z,1.50
2023-05-12T02:57:17.691Z,1.73
2023-05-12T02:59:44.215Z,1.43
2023-05-12T03:02:10.786Z,1.67
2023-05-12T03:04:37.442Z,1.70
2023-05-12T03:07:04.799Z,1.40
2023-05-12T03:09:31.486Z,1.87
2023-05-12T03:11:57.924Z,1.50
2023-05-12T03:14:26.165Z,1.80
2023-05-12T03:16:52.740Z,1.70
2023-05-12T03:19:19.252Z,1.50
2023-05-12T03:21:45.674Z,1.83
2023-05-12T03:24:12.171Z,1.93
2023-05-12T03:26:38.727Z,1.60
2023-05-12T03:29:05.261Z,2.00
2023-05-12T03:31:31.792Z,1.70
2023-05-12T03:33:58.286Z,1.60
2023-05-12T03:36:24.717Z,1.60
2023-05-12T03:38:51.199Z,1.87
2023-05-12T03:41:17.737Z,2.00
2023-05-12T03:43:44.323Z,1.90
2023-05-12T03:46:12.052Z,1.73
2023-05-12T03:48:38.696Z,1.60
2023-05-12T03:51:05.381Z,1.70
2023-05-12T03:53:31.968Z,1.97
2023-05-12T03:56:03.594Z,1.50
2023-05-12T03:58:30.074Z,1.50
2023-05-12T04:00:57.324Z,1.90
2023-05-12T04:03:23.983Z,1.50
2023-05-12T04:05:50.558Z,1.57
2023-05-12T04:08:17.093Z,1.77
2023-05-12T04:10:43.585Z,1.63
2023-05-12T04:13:10.313Z,1.70
2023-05-12T04:15:36.828Z,1.80
2023-05-12T04:18:03.922Z,1.83
2023-05-12T04:20:30.450Z,1.60
2023-05-12T04:22:56.954Z,1.57
2023-05-12T04:25:23.581Z,1.77
2023-05-12T04:27:50.061Z,1.80
2023-05-12T04:30:16.683Z,1.90
2023-05-12T04:32:44.009Z,1.80
2023-05-12T04:35:11.279Z,1.73
2023-05-12T04:37:38.429Z,1.77
2023-05-12T04:40:07.139Z,1.77
2023-05-12T04:42:33.972Z,1.73
2023-05-12T04:45:00.669Z,1.67
2023-05-12T04:47:27.382Z,1.77
2023-05-12T04:49:53.845Z,1.77
2023-05-12T04:52:23.101Z,1.30
2023-05-12T04:54:51.310Z,1.70
2023-05-12T04:57:17.752Z,1.57
2023-05-12T04:59:44.755Z,1.40
2023-05-12T05:02:14.618Z,1.70
2023-05-12T05:04:41.195Z,1.50
2023-05-12T05:07:08.217Z,1.77
2023-05-12T05:09:36.410Z,1.50
2023-05-12T05:12:03.341Z,1.60
2023-05-12T05:14:29.847Z,1.63
2023-05-12T05:16:56.831Z,1.87
2023-05-12T05:19:36.890Z,1.30
2023-05-12T05:22:11.658Z,1.80
2023-05-12T05:24:38.154Z,1.33
2023-05-12T05:27:05.178Z,1.50
2023-05-12T05:29:31.755Z,1.47
2023-05-12T05:31:58.316Z,1.60
2023-05-12T05:34:24.928Z,1.40
2023-05-12T05:36:51.471Z,1.60
2023-05-12T05:39:17.922Z,1.77
2023-05-12T05:41:44.408Z,1.70
2023-05-12T05:44:10.915Z,1.67
2023-05-12T05:46:37.538Z,1.70
2023-05-12T05:49:04.123Z,1.60
2023-05-12T05:51:31.561Z,1.43
2023-05-12T05:53:59.044Z,1.67
2023-05-12T05:56:25.553Z,1.50
2023-05-12T05:58:53.388Z,1.63
2023-05-12T06:01:19.885Z,1.67
2023-05-12T06:03:47.136Z,1.50
2023-05-12T06:06:13.746Z,1.83
2023-05-12T06:08:40.382Z,1.60
2023-05-12T06:11:06.934Z,1.40
2023-05-12T06:13:33.399Z,1.50
2023-05-12T06:16:00.019Z,1.60
2023-05-12T06:18:26.644Z,1.80
2023-05-12T06:20:53.399Z,1.50
2023-05-12T06:23:19.930Z,1.90
2023-05-12T06:25:48.500Z,1.43
2023-05-12T06:28:14.971Z,1.90
2023-05-12T06:30:41.666Z,1.80
2023-05-12T06:33:08.187Z,1.50
2023-05-12T06:35:34.665Z,1.60
2023-05-12T06:38:05.300Z,1.80
2023-05-12T06:40:32.246Z,1.47
2023-05-12T06:42:58.744Z,1.60
2023-05-12T06:45:26.459Z,1.60
2023-05-12T06:47:53.028Z,1.60
2023-05-12T06:50:19.675Z,1.70
2023-05-12T06:52:51.275Z,1.83
2023-05-12T06:55:20.639Z,1.50
2023-05-12T06:57:47.718Z,1.80
2023-05-12T07:00:14.661Z,1.60
2023-05-12T07:02:41.443Z,1.40
2023-05-12T07:05:08.573Z,1.73
2023-05-12T07:07:36.008Z,1.57
2023-05-12T07:10:02.605Z,1.83
2023-05-12T07:12:29.514Z,1.70
2023-05-12T07:14:56.130Z,1.63
2023-05-12T07:17:22.969Z,1.40
2023-05-12T07:19:49.504Z,1.33
2023-05-12T07:22:16.135Z,1.70
2023-05-12T07:24:43.300Z,1.70
2023-05-12T07:27:09.828Z,1.70
2023-05-12T07:29:36.284Z,1.40
2023-05-12T07:32:03.123Z,1.73
2023-05-12T07:34:29.583Z,1.60
2023-05-12T07:36:56.226Z,1.50
2023-05-12T07:39:23.808Z,1.50
2023-05-12T07:41:53.494Z,1.50
2023-05-12T07:44:19.893Z,1.80
2023-05-12T07:46:46.627Z,2.00
2023-05-12T07:49:13.098Z,1.67
2023-05-12T07:51:39.657Z,1.60
2023-05-12T07:54:07.198Z,1.63
2023-05-12T07:56:33.682Z,1.80
2023-05-12T07:59:00.100Z,1.93
2023-05-12T08:01:26.786Z,1.80
2023-05-12T08:03:53.369Z,1.60
2023-05-12T08:06:19.985Z,1.63
2023-05-12T08:08:46.511Z,1.57
2023-05-12T08:11:12.994Z,1.50
2023-05-12T08:13:39.648Z,1.40
2023-05-12T08:16:06.338Z,1.20
2023-05-12T08:18:32.865Z,1.60
2023-05-12T08:20:59.381Z,1.43
2023-05-12T08:23:25.898Z,1.97
2023-05-12T08:25:52.456Z,1.70
2023-05-12T08:28:18.888Z,1.60
2023-05-12T08:30:45.717Z,1.47
2023-05-12T08:33:12.623Z,1.90
2023-05-12T08:35:39.344Z,2.23
2023-05-12T08:38:06.332Z,1.50
2023-05-12T08:40:50.093Z,1.40
2023-05-12T08:43:37.900Z,1.40
2023-05-12T08:46:05.420Z,1.70
2023-05-12T08:48:34.415Z,1.87
2023-05-12T08:51:02.653Z,1.40
2023-05-12T08:53:29.413Z,1.50
2023-05-12T08:57:09.616Z,1.50
2023-05-12T08:58:45.789Z,1.33
2023-05-12T09:01:12.680Z,1.30
2023-05-12T09:03:39.549Z,1.50
2023-05-12T09:06:06.820Z,1.60
2023-05-12T09:08:34.956Z,1.60
2023-05-12T09:11:02.048Z,1.80
2023-05-12T09:13:33.846Z,1.70
2023-05-12T09:16:02.426Z,1.50
2023-05-12T09:18:47.815Z,1.57
2023-05-12T09:21:14.300Z,1.50
2023-05-12T09:23:51.567Z,1.40
2023-05-12T09:26:18.071Z,1.50
2023-05-12T09:28:44.502Z,1.47
2023-05-12T09:31:16.036Z,1.87
2023-05-12T09:33:42.624Z,1.60
2023-05-12T09:36:09.121Z,1.50
2023-05-12T09:38:35.928Z,1.80
2023-05-12T09:41:02.318Z,1.50
2023-05-12T09:43:28.755Z,1.90
2023-05-12T09:45:55.681Z,1.63
2023-05-12T09:48:22.231Z,2.60
2023-05-12T09:50:52.488Z,2.23
2023-05-12T09:53:22.814Z,1.87
2023-05-12T09:55:49.855Z,2.80
2023-05-12T09:58:19.312Z,2.23
2023-05-12T10:03:18.057Z,2.60
2023-05-12T10:05:49.943Z,2.33
2023-05-12T10:08:21.395Z,2.30
2023-05-12T10:10:50.515Z,2.50
2023-05-12T10:13:17.399Z,2.87
2023-05-12T10:15:46.683Z,2.83
2023-05-12T10:18:15.205Z,2.60
2023-05-12T10:20:44.765Z,2.20
2023-05-12T10:23:13.474Z,2.67
2023-05-12T10:25:44.729Z,2.33
2023-05-12T10:28:12.631Z,2.13
2023-05-12T10:30:40.664Z,2.37
2023-05-12T10:33:09.825Z,2.30
2023-05-12T10:35:37.156Z,2.20
2023-05-12T10:38:08.900Z,2.40
2023-05-12T10:40:35.887Z,2.50
2023-05-12T10:43:02.357Z,2.13
2023-05-12T10:45:34.941Z,2.60
2023-05-12T10:48:06.893Z,1.87
2023-05-12T10:50:33.642Z,2.50
2023-05-12T10:53:00.378Z,2.20
2023-05-12T10:55:34.986Z,2.67
2023-05-12T10:58:07.376Z,2.13
2023-05-12T11:00:44.885Z,2.23
2023-05-12T11:03:17.384Z,2.10
2023-05-12T11:05:46.751Z,2.40
2023-05-12T11:08:14.284Z,2.30
2023-05-12T11:10:42.475Z,2.13
2023-05-12T11:13:09.716Z,2.07
2023-05-12T11:15:36.189Z,1.93
2023-05-12T11:18:03.608Z,2.00
2023-05-12T11:20:31.023Z,2.27
2023-05-12T11:22:57.820Z,2.50
2023-05-12T11:25:27.140Z,2.30
2023-05-12T11:27:54.017Z,2.53
2023-05-12T11:30:21.332Z,2.00
2023-05-12T11:32:48.389Z,2.17
2023-05-12T11:35:17.345Z,2.43
2023-05-12T11:37:45.720Z,2.07
2023-05-12T11:40:20.028Z,2.53
2023-05-12T11:42:52.654Z,2.43
2023-05-12T11:45:21.613Z,2.20
2023-05-12T11:47:48.586Z,2.00
2023-05-12T11:50:22.971Z,2.30
2023-05-12T11:52:50.367Z,2.03
2023-05-12T11:55:24.817Z,2.30
2023-05-12T11:58:02.861Z,2.90
2023-05-12T12:00:34.861Z,2.50
2023-05-12T12:03:09.835Z,2.00
2023-05-12T12:05:36.951Z,2.50
2023-05-12T12:08:16.305Z,2.20
2023-05-12T12:10:46.725Z,2.00
2023-05-12T12:13:20.030Z,1.90
2023-05-12T12:15:46.526Z,1.80
2023-05-12T12:18:13.076Z,2.20
2023-05-12T12:20:39.610Z,2.10
2023-05-12T12:23:06.083Z,2.00
2023-05-12T12:25:32.659Z,2.47
2023-05-12T12:27:59.075Z,2.27
2023-05-12T12:30:25.734Z,2.00
2023-05-12T12:32:52.272Z,2.17
2023-05-12T12:35:19.057Z,2.30
2023-05-12T12:37:51.851Z,2.67
2023-05-12T12:40:20.024Z,2.00
2023-05-12T12:42:46.738Z,1.93
2023-05-12T12:45:13.655Z,2.00
2023-05-12T12:47:40.261Z,2.30
2023-05-12T12:50:09.459Z,1.77
2023-05-12T12:52:38.085Z,1.97
2023-05-12T12:55:06.570Z,1.97
2023-05-12T12:57:33.046Z,2.07
2023-05-12T12:59:59.526Z,1.93
2023-05-12T13:02:26.108Z,1.97
2023-05-12T13:04:52.731Z,2.33
2023-05-12T13:07:19.149Z,1.73
2023-05-12T13:09:45.526Z,1.93
2023-05-12T13:12:11.988Z,2.00
2023-05-12T13:14:38.573Z,2.10
2023-05-12T13:17:05.288Z,2.37
2023-05-12T13:19:31.825Z,2.10
2023-05-12T13:21:58.243Z,1.90
2023-05-12T13:24:25.457Z,2.13
2023-05-12T13:26:52.002Z,2.00
2023-05-12T13:29:18.906Z,1.97
2023-05-12T13:31:46.499Z,1.70
2023-05-12T13:34:13.797Z,1.90
2023-05-12T13:36:40.424Z,1.77
2023-05-12T13:39:06.952Z,2.00
2023-05-12T13:41:33.413Z,1.93
2023-05-12T13:43:59.920Z,1.80
2023-05-12T13:46:26.506Z,1.90
2023-05-12T13:48:53.018Z,1.93
2023-05-12T13:51:20.006Z,2.07
2023-05-12T13:53:46.667Z,2.27
2023-05-12T13:56:17.102Z,1.93
2023-05-12T13:58:43.710Z,1.80
2023-05-12T14:01:11.071Z,2.13
2023-05-12T14:03:38.037Z,1.90
2023-05-12T14:06:05.247Z,1.80
2023-05-12T14:08:34.172Z,1.97
2023-05-12T14:11:01.110Z,1.97
2023-05-12T14:13:27.870Z,1.40
2023-05-12T14:15:54.527Z,1.97
2023-05-12T14:18:21.326Z,1.83
2023-05-12T14:20:48.117Z,1.83
2023-05-12T14:23:14.588Z,1.90
2023-05-12T14:25:41.108Z,1.87
2023-05-12T14:28:07.747Z,1.80
2023-05-12T14:30:35.258Z,1.70
2023-05-12T14:33:02.789Z,1.90
2023-05-12T14:35:29.608Z,1.87
2023-05-12T14:37:56.681Z,1.70
2023-05-12T14:40:23.812Z,1.87
2023-05-12T14:42:50.522Z,2.17
2023-05-12T14:45:17.194Z,1.93
2023-05-12T14:47:44.410Z,1.80
2023-05-12T14:50:11.412Z,2.00
2023-05-12T14:52:40.606Z,1.97
2023-05-12T14:55:11.752Z,1.87
2023-05-12T14:57:39.036Z,1.90
2023-05-12T15:00:12.995Z,1.93
2023-05-12T15:02:41.122Z,1.80
2023-05-12T15:05:08.985Z,1.87
2023-05-12T15:07:36.333Z,1.50
2023-05-12T15:10:03.319Z,1.70
2023-05-12T15:12:29.982Z,1.93
2023-05-12T15:14:56.676Z,1.77
2023-05-12T15:17:23.461Z,2.10
2023-05-12T15:19:50.182Z,1.83
2023-05-12T15:22:16.740Z,1.67
2023-05-12T15:24:43.328Z,1.60
2023-05-12T15:27:09.905Z,1.73
2023-05-12T15:29:42.614Z,1.73
2023-05-12T15:32:09.415Z,1.60
2023-05-12T15:34:35.915Z,1.90
2023-05-12T15:37:02.539Z,1.77
2023-05-12T15:39:29.097Z,1.80
2023-05-12T15:41:55.704Z,1.60
2023-05-12T15:44:22.167Z,1.87
2023-05-12T15:46:48.725Z,1.90
2023-05-12T15:49:15.211Z,1.70
2023-05-12T15:51:41.893Z,1.70
2023-05-12T15:54:09.538Z,1.70
2023-05-12T15:56:36.563Z,1.73
2023-05-12T15:59:05.074Z,1.80
2023-05-12T16:01:31.746Z,2.17
2023-05-12T16:03:58.357Z,1.70
2023-05-12T16:06:25.092Z,1.90
2023-05-12T16:08:52.309Z,2.10
2023-05-12T16:11:19.088Z,1.70
2023-05-12T16:13:45.595Z,1.77
2023-05-12T16:16:12.356Z,2.00
2023-05-12T16:18:39.908Z,1.70
2023-05-12T16:21:06.538Z,1.80
2023-05-12T16:23:33.419Z,1.80
2023-05-12T16:25:59.983Z,1.47
2023-05-12T16:28:26.968Z,2.00
2023-05-12T16:30:53.422Z,1.67
2023-05-12T16:33:19.877Z,1.80
2023-05-12T16:35:46.532Z,1.90
2023-05-12T16:38:13.454Z,1.90
2023-05-12T16:40:39.963Z,1.93
2023-05-12T16:43:06.435Z,2.10
2023-05-12T16:45:32.935Z,1.80
2023-05-12T16:47:59.752Z,1.90
2023-05-12T16:50:26.291Z,1.70
2023-05-12T16:52:53.603Z,1.60
2023-05-12T16:55:20.515Z,1.50
2023-05-12T16:57:47.127Z,1.70
2023-05-12T17:00:14.482Z,1.80
2023-05-12T17:02:41.239Z,1.73
2023-05-12T17:05:08.171Z,1.80
2023-05-12T17:07:37.860Z,1.80
2023-05-12T17:10:04.726Z,1.70
2023-05-12T17:12:31.455Z,1.77
2023-05-12T17:15:06.999Z,1.77
2023-05-12T17:17:34.966Z,1.77
2023-05-12T17:20:02.240Z,1.57
2023-05-12T17:22:28.891Z,1.77
2023-05-12T17:24:55.339Z,1.70
2023-05-12T17:27:22.177Z,1.70
2023-05-12T17:29:49.252Z,1.80
2023-05-12T17:32:15.897Z,1.67
2023-05-12T17:34:42.366Z,1.93
2023-05-12T17:37:09.371Z,2.00
2023-05-12T17:39:38.001Z,1.90
2023-05-12T17:42:04.920Z,1.67
2023-05-12T17:44:31.534Z,1.60
2023-05-12T17:46:58.159Z,1.77
2023-05-12T17:49:24.625Z,1.80
2023-05-12T17:51:53.600Z,2.00
2023-05-12T17:54:20.431Z,1.60
2023-05-12T17:56:47.212Z,2.00
2023-05-12T17:59:13.675Z,2.00
2023-05-12T18:01:40.496Z,1.50
2023-05-12T18:04:06.955Z,1.63
2023-05-12T18:06:33.723Z,1.60
2023-05-12T18:09:00.156Z,2.13
2023-05-12T18:11:26.657Z,1.50
2023-05-12T18:13:53.666Z,1.90
2023-05-12T18:16:28.616Z,1.90
2023-05-12T18:18:56.268Z,1.87
2023-05-12T18:21:22.838Z,1.60
2023-05-12T18:23:49.303Z,1.90
2023-05-12T18:26:15.781Z,1.90
2023-05-12T18:28:42.331Z,1.90
2023-05-12T18:31:15.908Z,1.90
2023-05-12T18:33:46.803Z,1.63
2023-05-12T18:36:13.403Z,1.80
2023-05-12T18:38:40.055Z,1.60
2023-05-12T18:41:07.134Z,1.57
2023-05-12T18:43:34.778Z,1.57
2023-05-12T18:46:01.604Z,1.70
2023-05-12T18:48:28.096Z,2.10
2023-05-12T18:50:56.019Z,1.43
2023-05-12T18:53:23.126Z,1.80
2023-05-12T18:55:50.208Z,1.70
2023-05-12T18:58:16.908Z,1.80
2023-05-12T19:00:44.113Z,1.67
2023-05-12T19:03:10.879Z,1.67
2023-05-12T19:05:38.758Z,1.70
2023-05-12T19:08:05.539Z,1.53
2023-05-12T19:10:31.982Z,1.50
2023-05-12T19:12:58.446Z,1.40
2023-05-12T19:15:25.013Z,1.90
2023-05-12T19:17:51.469Z,1.90
2023-05-12T19:20:18.034Z,1.40
2023-05-12T19:22:45.121Z,1.70
2023-05-12T19:25:12.293Z,1.53
2023-05-12T19:27:38.707Z,1.50
2023-05-12T19:30:05.755Z,1.80
2023-05-12T19:32:32.881Z,1.67
2023-05-12T19:35:00.830Z,1.30
2023-05-12T19:37:27.574Z,1.60
2023-05-12T19:39:54.110Z,1.60
2023-05-12T19:42:21.315Z,1.60
2023-05-12T19:44:47.804Z,1.60
2023-05-12T19:47:14.609Z,1.67
2023-05-12T19:49:41.683Z,1.53
2023-05-12T19:52:08.553Z,1.70
2023-05-12T19:54:35.083Z,1.67
2023-05-12T19:57:02.055Z,1.67
2023-05-12T19:59:28.600Z,1.67
2023-05-12T20:01:55.161Z,1.80
2023-05-12T20:04:23.035Z,1.67
2023-05-12T20:06:49.518Z,1.37
2023-05-12T20:09:16.111Z,1.53
2023-05-12T20:11:42.638Z,1.43
2023-05-12T20:14:09.271Z,1.30
2023-05-12T20:16:35.709Z,1.60
2023-05-12T20:19:02.971Z,1.60
2023-05-12T20:21:31.309Z,1.50
2023-05-12T20:23:57.802Z,1.50
2023-05-12T20:26:24.515Z,1.33
2023-05-12T20:28:53.638Z,1.30
2023-05-12T20:31:20.200Z,1.63
2023-05-12T20:33:46.728Z,1.53
2023-05-12T20:36:13.435Z,1.60
2023-05-12T20:38:39.908Z,1.30
2023-05-12T20:41:07.208Z,1.60
2023-05-12T20:43:33.978Z,1.33
2023-05-12T20:46:03.653Z,1.50
2023-05-12T20:48:30.276Z,1.63
2023-05-12T20:50:57.496Z,1.43
2023-05-12T20:53:24.113Z,1.23
2023-05-12T20:55:50.609Z,1.67
2023-05-12T20:58:17.080Z,1.50
2023-05-12T21:00:43.585Z,1.23
2023-05-12T21:03:15.000Z,1.73
2023-05-12T21:05:47.969Z,1.30
2023-05-12T21:08:15.051Z,1.40
2023-05-12T21:10:41.612Z,1.30
2023-05-12T21:13:08.134Z,1.20
2023-05-12T21:15:34.927Z,1.40
2023-05-12T21:18:01.437Z,1.63
2023-05-12T21:20:27.924Z,1.57
2023-05-12T21:22:55.503Z,1.80
2023-05-12T21:25:21.946Z,1.30
2023-05-12T21:27:48.458Z,1.60
2023-05-12T21:30:14.996Z,1.40
2023-05-12T21:32:41.526Z,1.30
2023-05-12T21:35:08.249Z,1.43
2023-05-12T21:37:34.925Z,1.17
2023-05-12T21:40:01.456Z,1.40
2023-05-12T21:42:27.903Z,1.40
2023-05-12T21:44:54.353Z,1.43
2023-05-12T21:47:20.954Z,1.57
2023-05-12T21:49:47.530Z,1.20
2023-05-12T21:52:15.771Z,1.53
2023-05-12T21:54:42.305Z,1.50
2023-05-12T21:57:08.814Z,1.60
2023-05-12T21:59:35.421Z,1.70
2023-05-12T22:02:02.114Z,1.27
2023-05-12T22:04:28.602Z,1.30
2023-05-12T22:06:55.032Z,1.10
2023-05-12T22:09:22.157Z,1.50
2023-05-12T22:11:48.754Z,1.40
2023-05-12T22:14:15.272Z,1.40
2023-05-12T22:16:42.542Z,1.50
2023-05-12T22:19:09.684Z,1.40
2023-05-12T22:21:36.858Z,1.30
2023-05-12T22:24:03.653Z,1.20
2023-05-12T22:26:30.226Z,2.13
2023-05-12T22:28:56.681Z,1.40
2023-05-12T22:31:23.264Z,1.50
2023-05-12T22:33:49.719Z,1.60
2023-05-12T22:36:16.242Z,1.40
2023-05-12T22:38:42.652Z,1.57
2023-05-12T22:41:09.130Z,1.50
2023-05-12T22:43:35.532Z,1.47
2023-05-12T22:46:01.982Z,1.50
2023-05-12T22:48:28.667Z,1.10
2023-05-12T22:50:56.068Z,1.60
2023-05-12T22:53:22.595Z,1.53
2023-05-12T22:55:49.240Z,1.20
2023-05-12T22:58:16.034Z,1.60
2023-05-12T23:00:42.632Z,1.27
2023-05-12T23:03:09.250Z,1.40
2023-05-12T23:05:35.902Z,1.47
2023-05-12T23:08:02.941Z,1.10
2023-05-12T23:10:29.597Z,1.20
2023-05-12T23:12:56.175Z,1.70
2023-05-12T23:15:22.681Z,1.30
2023-05-12T23:17:49.164Z,1.30
2023-05-12T23:20:15.653Z,1.50
2023-05-12T23:22:42.146Z,1.40
2023-05-12T23:25:09.558Z,1.20
2023-05-12T23:27:36.538Z,1.60
2023-05-12T23:30:03.109Z,1.60
2023-05-12T23:32:29.870Z,1.33
2023-05-12T23:34:56.579Z,1.50
2023-05-12T23:37:24.487Z,1.40
2023-05-12T23:39:51.233Z,1.40
2023-05-12T23:42:17.637Z,1.50
2023-05-12T23:44:44.135Z,1.60
2023-05-12T23:47:10.792Z,1.20
2023-05-12T23:49:37.273Z,1.40
2023-05-12T23:52:03.940Z,1.40
2023-05-12T23:54:30.864Z,1.47
2023-05-12T23:56:57.340Z,1.30
2023-05-12T23:59:23.880Z,1.47
